createdAt,value
2019-05-13T00:01:35.633Z,13.33
2019-05-13T00:04:05.239Z,11.60
2019-05-13T00:06:34.591Z,11.23
2019-05-13T00:09:06.328Z,11.00
2019-05-13T00:11:35.902Z,10.63
2019-05-13T00:14:05.414Z,12.43
2019-05-13T00:16:34.778Z,10.83
2019-05-13T00:19:04.415Z,12.03
2019-05-13T00:21:34.139Z,10.80
2019-05-13T00:24:04.130Z,11.20
2019-05-13T00:26:33.892Z,10.60
2019-05-13T00:29:04.226Z,11.93
2019-05-13T00:31:33.981Z,10.33
2019-05-13T00:34:03.796Z,11.47
2019-05-13T00:36:33.915Z,13.30
2019-05-13T00:39:05.579Z,12.53
2019-05-13T00:41:35.076Z,12.07
2019-05-13T00:44:05.153Z,13.20
2019-05-13T00:46:34.712Z,11.00
2019-05-13T00:49:05.941Z,10.83
2019-05-13T00:51:35.547Z,11.40
2019-05-13T00:54:04.755Z,13.80
2019-05-13T00:56:34.632Z,10.83
2019-05-13T00:59:04.271Z,10.80
2019-05-13T01:01:33.987Z,10.97
2019-05-13T01:04:04.080Z,10.83
2019-05-13T01:06:34.426Z,11.40
2019-05-13T01:09:06.684Z,11.77
2019-05-13T01:11:36.086Z,13.03
2019-05-13T01:14:05.488Z,16.10
2019-05-13T01:16:34.892Z,14.23
2019-05-13T01:19:04.601Z,13.60
2019-05-13T01:21:34.590Z,11.93
2019-05-13T01:24:05.187Z,12.47
2019-05-13T01:26:34.759Z,14.83
2019-05-13T01:29:06.401Z,11.43
2019-05-13T01:31:35.909Z,11.40
2019-05-13T01:34:05.443Z,12.50
2019-05-13T01:36:34.975Z,16.63
2019-05-13T01:39:06.150Z,12.60
2019-05-13T01:41:35.560Z,14.00
2019-05-13T01:44:05.065Z,12.80
2019-05-13T01:46:34.823Z,10.63
2019-05-13T01:49:07.351Z,12.40
2019-05-13T01:51:36.853Z,9.90
2019-05-13T01:54:06.089Z,11.67
2019-05-13T01:56:35.554Z,17.70
2019-05-13T01:59:04.763Z,11.57
2019-05-13T02:01:34.255Z,12.97
2019-05-13T02:04:04.230Z,13.13
2019-05-13T02:06:34.104Z,13.30
2019-05-13T02:09:05.428Z,12.13
2019-05-13T02:11:34.871Z,12.30
2019-05-13T02:14:05.717Z,13.30
2019-05-13T02:16:35.387Z,14.60
2019-05-13T02:19:04.785Z,13.13
2019-05-13T02:21:34.185Z,14.50
2019-05-13T02:24:04.286Z,11.57
2019-05-13T02:26:34.545Z,13.27
2019-05-13T02:29:04.655Z,12.90
2019-05-13T02:31:46.155Z,15.63
2019-05-13T02:34:05.294Z,15.07
2019-05-13T02:36:34.888Z,11.17
2019-05-13T02:39:06.749Z,14.13
2019-05-13T02:41:36.390Z,11.20
2019-05-13T02:44:06.795Z,12.23
2019-05-13T02:46:37.200Z,12.17
2019-05-13T02:49:08.456Z,12.07
2019-05-13T02:51:37.954Z,14.30
2019-05-13T02:54:07.565Z,18.43
2019-05-13T02:56:37.039Z,12.70
2019-05-13T02:59:06.516Z,14.80
2019-05-13T03:01:36.237Z,13.10
2019-05-13T03:04:05.682Z,17.80
2019-05-13T03:06:35.083Z,15.37
2019-05-13T03:09:07.637Z,13.83
2019-05-13T03:11:37.058Z,14.83
2019-05-13T03:14:06.363Z,14.50
2019-05-13T03:16:54.330Z,15.43
2019-05-13T03:19:23.806Z,17.23
2019-05-13T03:21:53.194Z,16.67
2019-05-13T03:24:23.103Z,17.67
2019-05-13T03:26:53.950Z,16.60
2019-05-13T03:29:23.328Z,16.33
2019-05-13T03:31:55.641Z,16.20
2019-05-13T03:35:55.042Z,14.50
2019-05-13T03:38:22.565Z,15.27
2019-05-13T03:40:52.710Z,17.53
2019-05-13T03:43:23.156Z,17.70
2019-05-13T03:46:13.228Z,16.00
2019-05-13T03:48:43.173Z,23.10
2019-05-13T03:51:13.537Z,13.93
2019-05-13T03:56:32.786Z,13.90
2019-05-13T03:59:03.042Z,15.83
2019-05-13T04:01:32.856Z,14.57
2019-05-13T04:04:03.260Z,15.80
2019-05-13T04:06:32.780Z,15.87
2019-05-13T04:09:20.908Z,13.23
2019-05-13T04:11:33.559Z,16.00
2019-05-13T04:14:03.499Z,14.43
2019-05-13T04:16:34.428Z,16.93
2019-05-13T04:19:03.916Z,15.20
2019-05-13T04:21:33.954Z,13.90
2019-05-13T04:24:04.210Z,12.97
2019-05-13T04:26:33.788Z,23.40
2019-05-13T04:29:03.364Z,15.93
2019-05-13T04:31:33.463Z,15.70
2019-05-13T04:34:02.997Z,13.70
2019-05-13T04:36:32.698Z,14.43
2019-05-13T04:39:04.767Z,15.27
2019-05-13T04:41:34.375Z,14.03
2019-05-13T04:44:03.939Z,12.50
2019-05-13T04:46:33.591Z,13.03
2019-05-13T04:49:03.061Z,12.70
2019-05-13T04:51:33.065Z,16.23
2019-05-13T04:54:03.086Z,13.67
2019-05-13T04:56:33.101Z,15.57
2019-05-13T04:59:03.148Z,20.30
2019-05-13T05:01:55.395Z,13.37
2019-05-13T05:04:35.161Z,15.33
2019-05-13T05:07:23.063Z,15.07
2019-05-13T05:10:15.919Z,14.70
2019-05-13T05:15:52.510Z,15.00
2019-05-13T05:18:32.685Z,13.87
2019-05-13T05:21:11.900Z,16.83
2019-05-13T05:24:12.940Z,13.33
2019-05-13T05:27:06.909Z,13.23
2019-05-13T05:29:57.711Z,13.57
2019-05-13T05:32:51.849Z,14.17
2019-05-13T05:35:42.737Z,14.87
2019-05-13T05:38:29.002Z,17.53
2019-05-13T05:40:58.897Z,19.07
2019-05-13T05:43:28.415Z,21.63
2019-05-13T05:45:58.022Z,24.10
2019-05-13T05:48:27.321Z,14.07
2019-05-13T05:50:58.779Z,11.27
2019-05-13T05:53:28.274Z,12.20
2019-05-13T05:55:59.432Z,21.67
2019-05-13T05:58:31.558Z,10.57
2019-05-13T06:01:02.595Z,10.90
2019-05-13T06:03:32.760Z,16.67
2019-05-13T06:06:02.250Z,12.73
2019-05-13T06:08:32.356Z,9.50
2019-05-13T06:11:02.295Z,9.63
2019-05-13T06:13:31.667Z,14.87
2019-05-13T06:16:01.810Z,10.10
2019-05-13T06:18:32.504Z,18.00
2019-05-13T06:21:02.317Z,8.60
2019-05-13T06:23:31.819Z,8.63
2019-05-13T06:26:01.962Z,20.83
2019-05-13T06:28:32.253Z,12.10
2019-05-13T06:31:02.539Z,14.80
2019-05-13T06:33:32.218Z,18.53
2019-05-13T06:36:01.615Z,10.57
2019-05-13T06:38:32.256Z,11.67
2019-05-13T06:41:07.915Z,7.47
2019-05-13T06:43:34.029Z,10.63
2019-05-13T06:46:03.627Z,16.33
2019-05-13T06:48:32.963Z,10.10
2019-05-13T06:51:02.693Z,9.27
2019-05-13T06:53:32.381Z,13.93
2019-05-13T06:56:01.900Z,11.53
2019-05-13T06:58:32.522Z,11.30
2019-05-13T07:01:03.626Z,8.07
2019-05-13T07:03:32.921Z,12.40
2019-05-13T07:06:02.526Z,12.13
2019-05-13T07:08:31.823Z,8.57
2019-05-13T07:11:17.204Z,9.93
2019-05-13T07:13:34.213Z,10.40
2019-05-13T07:16:03.406Z,12.03
2019-05-13T07:18:32.822Z,8.17
2019-05-13T07:21:02.415Z,10.03
2019-05-13T07:23:32.084Z,16.90
2019-05-13T07:26:02.765Z,11.23
2019-05-13T07:28:32.521Z,11.33
2019-05-13T07:31:02.423Z,9.63
2019-05-13T07:33:33.131Z,8.30
2019-05-13T07:36:03.342Z,7.03
2019-05-13T07:38:33.427Z,12.57
2019-05-13T07:41:03.267Z,14.63
2019-05-13T07:43:32.687Z,8.13
2019-05-13T07:46:02.373Z,11.90
2019-05-13T07:48:33.079Z,7.93
2019-05-13T07:51:04.685Z,5.63
2019-05-13T07:53:33.710Z,10.23
2019-05-13T07:56:03.373Z,6.10
2019-05-13T07:58:37.170Z,9.63
2019-05-13T08:01:04.780Z,10.03
2019-05-13T08:03:35.661Z,10.83
2019-05-13T08:06:05.170Z,6.50
2019-05-13T08:08:34.566Z,7.33
2019-05-13T08:11:04.251Z,3.93
2019-05-13T08:13:33.781Z,10.90
2019-05-13T08:16:03.381Z,5.70
2019-05-13T08:18:33.196Z,8.67
2019-05-13T08:21:02.721Z,4.97
2019-05-13T08:23:33.236Z,4.93
2019-05-13T08:26:03.245Z,5.77
2019-05-13T08:28:32.709Z,4.87
2019-05-13T08:31:56.123Z,6.57
2019-05-13T08:34:25.436Z,5.80
2019-05-13T08:36:54.725Z,6.07
2019-05-13T08:39:26.944Z,12.77
2019-05-13T08:42:10.274Z,7.37
2019-05-13T08:44:26.540Z,3.77
2019-05-13T08:46:57.444Z,7.73
2019-05-13T08:49:26.847Z,3.97
2019-05-13T08:51:56.245Z,5.30
2019-05-13T08:54:26.860Z,10.57
2019-05-13T08:56:56.344Z,3.73
2019-05-13T08:59:25.890Z,6.47
2019-05-13T09:01:55.614Z,4.50
2019-05-13T09:04:25.306Z,4.63
2019-05-13T09:06:56.796Z,4.83
2019-05-13T09:09:26.357Z,5.00
2019-05-13T09:11:55.660Z,5.43
2019-05-13T09:15:58.447Z,1.70
2019-05-13T09:18:27.887Z,4.37
2019-05-13T09:20:57.359Z,4.17
2019-05-13T09:23:26.857Z,4.50
2019-05-13T09:25:56.361Z,4.93
2019-05-13T09:28:25.782Z,6.17
2019-05-13T09:30:55.375Z,4.73
2019-05-13T09:33:24.842Z,3.90
2019-05-13T09:35:54.299Z,3.23
2019-05-13T09:38:23.596Z,3.77
2019-05-13T09:40:53.377Z,2.13
2019-05-13T09:43:22.899Z,4.77
2019-05-13T09:45:52.656Z,2.50
2019-05-13T09:48:22.904Z,10.33
2019-05-13T09:50:53.452Z,6.00
2019-05-13T09:53:23.121Z,7.00
2019-05-13T09:55:52.579Z,6.93
2019-05-13T09:58:22.617Z,7.10
2019-05-13T10:00:53.068Z,3.90
2019-05-13T10:03:29.063Z,4.20
2019-05-13T10:05:54.682Z,4.97
2019-05-13T10:08:24.898Z,3.97
2019-05-13T10:10:54.329Z,6.73
2019-05-13T10:13:23.806Z,4.30
2019-05-13T10:15:53.305Z,2.43
2019-05-13T10:18:22.711Z,4.27
2019-05-13T10:20:59.890Z,1.50
2019-05-13T10:23:32.494Z,4.00
2019-05-13T10:26:03.313Z,1.70
2019-05-13T10:28:32.336Z,3.37
2019-05-13T10:31:01.979Z,2.20
2019-05-13T10:33:32.166Z,6.50
2019-05-13T10:36:03.863Z,3.67
2019-05-13T10:38:33.536Z,6.77
2019-05-13T10:41:03.723Z,3.80
2019-05-13T10:43:40.186Z,6.57
2019-05-13T10:46:04.523Z,3.80
2019-05-13T10:48:33.962Z,3.47
2019-05-13T10:51:03.474Z,5.30
2019-05-13T10:53:32.969Z,3.67
2019-05-13T10:56:03.104Z,2.70
2019-05-13T10:58:33.307Z,6.23
2019-05-13T11:01:03.361Z,2.73
2019-05-13T11:03:33.311Z,4.50
2019-05-13T11:06:03.183Z,6.47
2019-05-13T11:08:33.405Z,7.00
2019-05-13T11:11:03.286Z,4.20
2019-05-13T11:13:50.587Z,5.90
2019-05-13T11:16:05.976Z,4.97
2019-05-13T11:20:06.914Z,7.25
2019-05-13T11:22:37.652Z,5.12
2019-05-13T11:25:07.375Z,3.95
2019-05-13T11:27:37.855Z,6.92
2019-05-13T11:30:07.998Z,6.28
2019-05-13T11:32:37.926Z,6.35
2019-05-13T11:35:07.636Z,3.15
2019-05-13T11:37:38.374Z,6.25
2019-05-13T11:40:07.876Z,11.53
2019-05-13T11:42:37.399Z,4.33
2019-05-13T11:45:08.563Z,4.87
2019-05-13T11:47:41.518Z,4.12
2019-05-13T11:50:11.629Z,5.35
2019-05-13T11:52:42.796Z,3.10
2019-05-13T11:55:13.149Z,5.30
2019-05-13T11:57:44.334Z,9.48
2019-05-13T12:00:13.940Z,4.83
2019-05-13T12:02:50.277Z,6.58
2019-05-13T12:05:14.699Z,5.35
2019-05-13T12:07:44.194Z,3.92
2019-05-13T12:10:13.698Z,3.98
2019-05-13T12:12:43.884Z,3.90
2019-05-13T12:15:27.138Z,10.45
2019-05-13T12:17:45.184Z,5.00
2019-05-13T12:20:16.791Z,4.42
2019-05-13T12:22:46.606Z,4.92
2019-05-13T12:25:16.258Z,3.37
2019-05-13T12:27:45.866Z,3.58
2019-05-13T12:30:15.339Z,5.55
2019-05-13T12:32:44.770Z,2.20
2019-05-13T12:35:14.163Z,5.00
2019-05-13T12:37:43.980Z,3.45
2019-05-13T12:40:13.479Z,5.93
2019-05-13T12:42:46.873Z,8.90
2019-05-13T12:45:14.626Z,4.78
2019-05-13T12:47:44.214Z,5.05
2019-05-13T12:50:14.007Z,2.77
2019-05-13T12:52:43.984Z,3.90
2019-05-13T12:55:14.223Z,6.47
2019-05-13T12:57:44.004Z,6.65
2019-05-13T13:00:13.512Z,8.83
2019-05-13T13:02:50.033Z,3.50
2019-05-13T13:05:20.349Z,4.05
2019-05-13T13:08:12.180Z,8.97
2019-05-13T13:10:17.260Z,6.80
2019-05-13T13:12:46.762Z,2.40
2019-05-13T13:15:35.934Z,4.35
2019-05-13T13:17:53.609Z,8.07
2019-05-13T13:20:24.304Z,7.47
2019-05-13T13:22:52.100Z,7.55
2019-05-13T13:25:23.774Z,5.40
2019-05-13T13:28:10.522Z,3.63
2019-05-13T13:30:24.553Z,3.83
2019-05-13T13:32:58.253Z,1.93
2019-05-13T13:35:27.659Z,4.33
2019-05-13T13:37:58.290Z,6.60
2019-05-13T13:40:29.754Z,5.13
2019-05-13T13:42:58.808Z,6.30
2019-05-13T13:45:28.542Z,8.83
2019-05-13T13:48:03.552Z,4.93
2019-05-13T13:50:33.287Z,5.17
2019-05-13T13:53:00.282Z,2.37
2019-05-13T13:55:32.145Z,3.77
2019-05-13T13:58:02.308Z,2.90
2019-05-13T14:00:40.638Z,3.00
2019-05-13T14:03:06.507Z,2.60
2019-05-13T14:05:36.258Z,4.20
2019-05-13T14:08:05.963Z,4.27
2019-05-13T14:10:35.566Z,2.40
2019-05-13T14:13:05.064Z,8.33
2019-05-13T14:15:34.580Z,2.03
2019-05-13T14:18:04.259Z,5.23
2019-05-13T14:20:33.788Z,4.50
2019-05-13T14:23:03.390Z,2.13
2019-05-13T14:25:33.008Z,7.77
2019-05-13T14:28:02.614Z,9.20
2019-05-13T14:30:32.518Z,3.57
2019-05-13T14:33:02.381Z,4.70
2019-05-13T14:35:32.036Z,6.43
2019-05-13T14:38:02.476Z,4.43
2019-05-13T14:40:32.327Z,6.17
2019-05-13T14:43:03.652Z,8.17
2019-05-13T14:45:33.227Z,6.47
2019-05-13T14:48:02.730Z,10.13
2019-05-13T14:50:32.234Z,5.30
